Time;durP1;ratioP1;P1;durP2;ratioP2;P2;SDS_P1;SDS_P2;PMS_P1;PMS_P2;Temp;Humidity;BMP_temperature;BMP_pressure;BME280_temperature;BME280_humidity;BME280_pressure;Samples;Min_cycle;Max_cycle;Signal;HPM_P1;HPM_P2
2021/06/19 00:00:08;;;;;;;13.10;11.85;;;19.80;99.90;;;;;;5001588;28;20038;-85
2021/06/19 00:02:34;;;;;;;12.68;11.38;;;19.80;99.90;;;;;;4997596;28;20033;-85
2021/06/19 00:05:00;;;;;;;12.18;10.98;;;19.80;99.90;;;;;;4998895;28;20105;-84
2021/06/19 00:07:25;;;;;;;13.32;11.70;;;19.80;99.90;;;;;;4997886;28;20046;-85
2021/06/19 00:09:51;;;;;;;13.13;11.82;;;19.80;99.90;;;;;;4999200;28;20043;-85
2021/06/19 00:12:18;;;;;;;13.13;11.75;;;19.70;99.90;;;;;;4998453;28;20071;-85
2021/06/19 00:14:44;;;;;;;13.23;12.02;;;19.80;99.90;;;;;;5002324;28;20381;-85
2021/06/19 00:17:11;;;;;;;14.77;13.38;;;19.60;99.90;;;;;;4998085;28;20506;-85
2021/06/19 00:19:37;;;;;;;13.93;12.68;;;19.80;99.90;;;;;;4998207;28;20098;-85
2021/06/19 00:22:03;;;;;;;14.15;12.82;;;19.90;99.90;;;;;;4999812;28;20034;-86
2021/06/19 00:24:34;;;;;;;15.73;12.70;;;19.80;99.90;;;;;;4998336;28;20043;-86
2021/06/19 00:27:00;;;;;;;16.40;14.75;;;19.80;99.90;;;;;;4995551;28;20106;-86
2021/06/19 00:29:26;;;;;;;13.27;12.07;;;19.80;99.90;;;;;;5000956;28;20034;-85
2021/06/19 00:31:52;;;;;;;13.07;11.77;;;19.70;99.90;;;;;;5003688;28;20348;-86
2021/06/19 00:34:17;;;;;;;13.80;12.57;;;19.70;99.90;;;;;;5003769;28;20030;-86
2021/06/19 00:36:43;;;;;;;16.35;14.95;;;19.70;99.90;;;;;;5002603;28;20860;-86
2021/06/19 00:39:09;;;;;;;16.40;13.75;;;19.80;99.90;;;;;;5001515;28;20025;-85
2021/06/19 00:41:35;;;;;;;17.88;14.77;;;19.80;99.90;;;;;;5002223;28;20022;-86
2021/06/19 00:44:05;;;;;;;16.40;14.98;;;19.80;99.90;;;;;;4999467;28;20425;-86
2021/06/19 00:46:31;;;;;;;16.88;15.25;;;19.70;99.90;;;;;;4999958;28;20071;-85
2021/06/19 00:48:57;;;;;;;19.92;17.75;;;19.80;99.90;;;;;;5002717;28;20030;-85
2021/06/19 00:51:23;;;;;;;17.70;16.10;;;19.80;99.90;;;;;;5003099;28;20031;-85
2021/06/19 00:53:49;;;;;;;19.58;17.38;;;19.70;99.90;;;;;;5001141;28;20046;-85
2021/06/19 00:56:15;;;;;;;17.77;16.05;;;19.70;99.90;;;;;;5002840;28;20115;-85
2021/06/19 00:58:41;;;;;;;19.42;17.63;;;19.70;99.90;;;;;;5003712;28;20038;-85
2021/06/19 01:01:06;;;;;;;18.10;16.20;;;19.80;99.90;;;;;;5004224;28;20053;-85
2021/06/19 01:03:33;;;;;;;17.80;16.00;;;19.70;99.90;;;;;;5001867;28;20042;-86
2021/06/19 01:05:58;;;;;;;18.15;16.52;;;19.90;99.90;;;;;;5000698;28;20159;-86
2021/06/19 01:08:24;;;;;;;20.30;18.25;;;19.90;99.90;;;;;;5002016;28;20030;-86
2021/06/19 01:10:54;;;;;;;19.17;17.38;;;19.70;99.90;;;;;;4999166;28;20035;-87
2021/06/19 01:13:19;;;;;;;19.02;17.30;;;19.90;99.90;;;;;;5000022;28;20046;-86
2021/06/19 01:15:45;;;;;;;21.40;19.23;;;19.70;99.90;;;;;;5000743;28;20038;-86
2021/06/19 01:18:11;;;;;;;19.88;18.17;;;19.90;99.90;;;;;;4998206;28;20034;-86
2021/06/19 01:20:37;;;;;;;18.98;17.38;;;19.70;99.90;;;;;;4986983;28;20050;-86
2021/06/19 01:23:03;;;;;;;21.88;19.98;;;19.70;99.90;;;;;;5002204;28;20031;-86
2021/06/19 01:25:33;;;;;;;23.48;19.88;;;19.80;99.90;;;;;;5002271;28;20034;-86
2021/06/19 01:27:59;;;;;;;23.92;21.27;;;19.70;99.90;;;;;;4997699;28;20042;-86
2021/06/19 01:30:27;;;;;;;22.75;20.45;;;19.80;99.90;;;;;;5000884;28;20038;-86
2021/06/19 01:32:54;;;;;;;22.33;20.23;;;19.70;99.90;;;;;;4999377;28;20031;-86
2021/06/19 01:35:21;;;;;;;24.05;21.15;;;19.80;99.90;;;;;;5000560;28;20035;-86
2021/06/19 01:37:49;;;;;;;25.77;23.17;;;19.90;99.90;;;;;;5001648;28;20066;-86
2021/06/19 01:40:18;;;;;;;24.00;21.52;;;19.90;99.90;;;;;;5000571;28;20039;-86
2021/06/19 01:42:47;;;;;;;26.58;23.98;;;19.90;99.90;;;;;;4997771;28;20528;-86
2021/06/19 01:45:17;;;;;;;24.52;22.42;;;19.80;99.90;;;;;;4998017;28;20039;-86
2021/06/19 01:47:44;;;;;;;27.02;24.35;;;19.80;99.90;;;;;;4996347;28;20474;-86
2021/06/19 01:50:11;;;;;;;28.80;25.77;;;19.90;99.90;;;;;;4996489;28;20030;-86
2021/06/19 01:52:37;;;;;;;28.25;25.58;;;19.90;99.90;;;;;;4996975;28;20337;-86
2021/06/19 01:55:04;;;;;;;26.60;23.88;;;19.90;99.90;;;;;;4997727;28;20035;-86
2021/06/19 01:57:29;;;;;;;28.05;25.23;;;19.90;99.90;;;;;;5001044;28;20019;-86
2021/06/19 02:00:05;;;;;;;26.48;23.67;;;20.20;99.90;;;;;;5000223;28;20038;-86
2021/06/19 02:02:31;;;;;;;25.88;23.23;;;19.90;99.90;;;;;;4999151;28;20044;-86
2021/06/19 02:04:57;;;;;;;26.70;24.13;;;19.90;99.90;;;;;;5000396;28;20034;-86
2021/06/19 02:07:23;;;;;;;25.90;23.40;;;19.90;99.90;;;;;;4997470;28;20161;-85
2021/06/19 02:09:49;;;;;;;26.38;22.92;;;20.00;99.90;;;;;;5000528;28;20039;-86
2021/06/19 02:12:15;;;;;;;27.08;24.33;;;19.90;99.90;;;;;;4999979;28;20919;-86
2021/06/19 02:14:42;;;;;;;26.75;24.25;;;20.10;99.90;;;;;;5002208;28;20034;-87
2021/06/19 02:17:07;;;;;;;27.10;24.60;;;19.90;99.90;;;;;;4994147;28;20022;-87
2021/06/19 02:19:33;;;;;;;28.90;26.00;;;19.90;99.90;;;;;;4998759;28;20055;-86
2021/06/19 02:21:58;;;;;;;29.42;25.38;;;20.20;99.90;;;;;;4996152;28;20033;-87
2021/06/19 02:24:24;;;;;;;25.35;22.77;;;19.90;99.90;;;;;;5001829;28;20053;-86
2021/06/19 02:26:50;;;;;;;26.08;23.55;;;20.00;99.90;;;;;;4999675;28;20069;-86
2021/06/19 02:29:15;;;;;;;27.60;24.60;;;19.90;99.90;;;;;;4999615;28;20023;-86
2021/06/19 02:31:41;;;;;;;25.30;22.88;;;20.00;99.90;;;;;;5003006;28;20029;-86
2021/06/19 02:34:07;;;;;;;24.40;21.90;;;20.00;99.90;;;;;;5006152;28;20042;-86
2021/06/19 02:36:32;;;;;;;23.10;20.70;;;20.00;99.90;;;;;;4996517;28;20027;-85
2021/06/19 02:38:58;;;;;;;22.95;20.58;;;20.10;99.90;;;;;;5008539;28;20173;-85
2021/06/19 02:41:24;;;;;;;22.40;19.90;;;19.90;99.90;;;;;;5007779;28;20134;-85
2021/06/19 02:43:49;;;;;;;22.02;19.48;;;20.00;99.90;;;;;;4992500;28;20027;-86
2021/06/19 02:46:15;;;;;;;19.58;17.48;;;19.90;99.90;;;;;;5006753;28;20061;-85
2021/06/19 02:48:41;;;;;;;17.38;15.68;;;19.90;99.90;;;;;;5002960;28;20051;-85
2021/06/19 02:51:07;;;;;;;16.38;14.70;;;20.10;99.90;;;;;;5006356;28;20018;-85
2021/06/19 02:53:33;;;;;;;18.08;16.00;;;19.90;99.90;;;;;;5005414;28;20111;-85
2021/06/19 02:55:58;;;;;;;16.77;15.07;;;19.90;99.90;;;;;;5006088;28;20050;-85
2021/06/19 02:58:24;;;;;;;15.93;14.32;;;20.10;99.90;;;;;;5007736;28;20054;-85
2021/06/19 03:00:50;;;;;;;17.38;15.55;;;19.90;99.90;;;;;;5007351;28;20030;-85
2021/06/19 03:03:16;;;;;;;16.70;15.02;;;19.80;99.90;;;;;;5012683;28;20553;-86
2021/06/19 03:05:41;;;;;;;19.27;16.98;;;19.90;99.90;;;;;;5000209;28;20030;-85
2021/06/19 03:08:08;;;;;;;15.73;14.13;;;19.90;99.90;;;;;;5008516;28;20026;-86
2021/06/19 03:10:41;;;;;;;16.35;14.85;;;19.90;99.90;;;;;;5006267;28;20042;-86
2021/06/19 03:13:06;;;;;;;18.23;15.98;;;19.90;99.90;;;;;;5005788;28;20046;-85
2021/06/19 03:15:33;;;;;;;15.82;13.98;;;19.90;99.90;;;;;;5007257;28;20026;-85
2021/06/19 03:17:59;;;;;;;15.05;13.55;;;19.70;99.90;;;;;;5006397;28;20066;-85
2021/06/19 03:20:24;;;;;;;14.73;13.20;;;19.80;99.90;;;;;;5007677;28;20066;-85
2021/06/19 03:22:56;;;;;;;14.88;13.50;;;19.80;99.90;;;;;;5008615;28;20037;-86
2021/06/19 03:25:31;;;;;;;15.45;13.98;;;19.80;99.90;;;;;;4991103;28;20101;-85
2021/06/19 03:27:59;;;;;;;14.83;13.43;;;19.80;99.90;;;;;;5004037;28;20045;-84
2021/06/19 03:30:26;;;;;;;15.18;13.82;;;19.90;99.90;;;;;;5009406;28;20035;-85
2021/06/19 03:32:52;;;;;;;13.98;12.63;;;19.70;99.90;;;;;;5007779;28;20086;-85
2021/06/19 03:35:19;;;;;;;17.15;12.68;;;19.70;99.90;;;;;;4989276;28;20030;-84
2021/06/19 03:37:46;;;;;;;17.90;13.00;;;19.70;99.90;;;;;;5012054;28;20097;-85
2021/06/19 03:40:14;;;;;;;13.63;12.32;;;19.70;99.90;;;;;;5012748;28;20011;-85
2021/06/19 03:42:40;;;;;;;13.93;12.38;;;19.70;99.90;;;;;;5009641;28;20062;-85
2021/06/19 03:45:08;;;;;;;13.60;12.15;;;19.80;99.90;;;;;;5009320;28;20043;-85
2021/06/19 03:47:33;;;;;;;16.30;12.27;;;19.70;99.90;;;;;;5011017;28;20041;-85
2021/06/19 03:50:00;;;;;;;13.60;12.30;;;19.70;99.90;;;;;;5012216;28;20042;-85
2021/06/19 03:52:25;;;;;;;13.15;11.93;;;19.90;99.90;;;;;;5011081;28;20043;-85
2021/06/19 03:54:52;;;;;;;13.50;12.23;;;19.70;99.90;;;;;;5005859;28;20038;-86
2021/06/19 03:57:29;;;;;;;14.02;12.82;;;20.00;99.90;;;;;;5005618;28;20038;-86
2021/06/19 03:59:55;;;;;;;17.33;12.25;;;19.80;99.90;;;;;;5007391;28;20054;-85
2021/06/19 04:02:22;;;;;;;14.40;11.85;;;19.80;99.90;;;;;;5009875;28;20117;-85
2021/06/19 04:04:49;;;;;;;13.30;12.10;;;20.00;99.90;;;;;;5009270;28;20034;-85
2021/06/19 04:07:15;;;;;;;12.80;11.57;;;19.80;99.90;;;;;;5004131;28;20701;-86
2021/06/19 04:09:41;;;;;;;15.18;11.30;;;19.90;99.90;;;;;;5008000;28;20085;-86
2021/06/19 04:12:07;;;;;;;12.32;11.05;;;19.90;99.90;;;;;;5009655;28;20046;-86
2021/06/19 04:14:33;;;;;;;12.15;10.95;;;19.90;99.90;;;;;;5013355;28;20044;-86
2021/06/19 04:16:59;;;;;;;14.13;12.73;;;20.00;99.90;;;;;;5009665;28;20033;-87
2021/06/19 04:19:24;;;;;;;13.35;10.93;;;20.00;99.90;;;;;;5012765;28;20054;-86
2021/06/19 04:21:50;;;;;;;13.35;11.40;;;20.10;99.90;;;;;;5011927;28;20050;-87
2021/06/19 04:24:16;;;;;;;21.73;11.55;;;20.30;99.90;;;;;;5008981;28;20055;-86
2021/06/19 04:26:42;;;;;;;13.25;11.95;;;20.40;99.90;;;;;;5005821;28;20042;-86
2021/06/19 04:29:07;;;;;;;14.07;11.80;;;20.30;99.90;;;;;;5007016;28;20060;-86
2021/06/19 04:31:33;;;;;;;14.48;13.18;;;20.10;99.90;;;;;;5013362;28;20070;-86
2021/06/19 04:33:59;;;;;;;13.60;11.30;;;20.10;99.90;;;;;;5011580;28;20038;-87
2021/06/19 04:36:26;;;;;;;13.23;11.05;;;20.20;99.90;;;;;;5011429;28;20030;-86
2021/06/19 04:38:51;;;;;;;14.07;10.35;;;20.30;99.90;;;;;;5006595;28;20026;-86
2021/06/19 04:46:50;;;;;;;15.35;11.90;;;20.80;99.90;;;;;;5007805;28;20046;-86
2021/06/19 04:49:16;;;;;;;15.35;11.95;;;20.30;99.90;;;;;;5008006;28;20049;-87
2021/06/19 04:51:43;;;;;;;13.32;12.18;;;20.50;99.90;;;;;;5007366;28;20046;-85
2021/06/19 04:54:08;;;;;;;15.65;13.93;;;20.50;99.90;;;;;;5009447;28;20220;-86
2021/06/19 04:56:37;;;;;;;13.55;12.23;;;20.60;99.90;;;;;;5003074;28;20046;-85
2021/06/19 04:59:02;;;;;;;15.07;13.45;;;20.70;99.90;;;;;;5005118;28;20185;-85
2021/06/19 05:01:28;;;;;;;21.63;13.13;;;20.60;99.90;;;;;;5008660;28;20140;-86
2021/06/19 05:03:54;;;;;;;15.90;14.27;;;20.90;99.90;;;;;;5003406;28;20034;-86
2021/06/19 05:06:19;;;;;;;13.25;12.15;;;20.70;99.90;;;;;;5005381;28;20039;-86
2021/06/19 05:08:45;;;;;;;14.40;13.05;;;20.80;99.90;;;;;;5003314;28;20057;-86
2021/06/19 05:11:11;;;;;;;13.80;12.52;;;21.10;99.90;;;;;;5003788;28;20026;-86
2021/06/19 05:13:37;;;;;;;16.58;15.05;;;20.90;99.90;;;;;;4998863;28;20400;-86
2021/06/19 05:16:03;;;;;;;18.13;16.35;;;20.90;99.90;;;;;;4990389;28;20034;-85
2021/06/19 05:18:28;;;;;;;23.77;17.23;;;20.80;99.90;;;;;;4981147;28;20085;-86
2021/06/19 05:20:55;;;;;;;19.85;17.60;;;20.70;99.90;;;;;;4986706;28;20038;-86
2021/06/19 05:23:22;;;;;;;19.00;17.08;;;20.70;99.90;;;;;;4991605;28;20113;-86
2021/06/19 05:25:47;;;;;;;21.25;17.50;;;20.60;99.90;;;;;;4973724;28;20045;-86
2021/06/19 05:28:13;;;;;;;19.02;17.17;;;20.60;99.90;;;;;;4994513;28;20046;-86
2021/06/19 05:30:41;;;;;;;19.70;17.27;;;20.90;99.90;;;;;;4990270;28;20120;-86
2021/06/19 05:33:06;;;;;;;23.45;17.48;;;20.70;99.90;;;;;;4989112;28;20068;-87
2021/06/19 05:35:32;;;;;;;20.40;18.30;;;20.70;99.90;;;;;;4980815;28;20491;-86
2021/06/19 05:37:58;;;;;;;20.15;17.05;;;20.80;99.90;;;;;;4985595;28;20144;-86
2021/06/19 05:40:24;;;;;;;20.10;18.30;;;20.60;99.90;;;;;;4987106;28;20047;-85
2021/06/19 05:46:39;;;;;;;17.50;15.70;;;20.80;99.90;;;;;;4927849;29;20043;-86
2021/06/19 05:49:05;;;;;;;20.27;17.50;;;20.80;99.90;;;;;;4926845;28;20125;-87
2021/06/19 05:51:31;;;;;;;17.65;15.95;;;21.40;99.90;;;;;;4990063;28;20035;-87
2021/06/19 05:53:58;;;;;;;20.13;15.80;;;21.20;99.90;;;;;;4971320;28;20041;-86
2021/06/19 05:56:23;;;;;;;27.83;15.48;;;21.60;99.90;;;;;;4981654;28;20040;-86
2021/06/19 05:58:49;;;;;;;17.30;15.07;;;21.60;99.90;;;;;;4964117;28;20564;-85
2021/06/19 06:01:15;;;;;;;19.80;16.05;;;21.70;99.90;;;;;;4981490;28;20043;-85
2021/06/19 06:03:41;;;;;;;16.95;15.20;;;21.70;99.90;;;;;;4983380;28;20118;-85
2021/06/19 06:06:06;;;;;;;16.60;14.80;;;22.30;99.90;;;;;;4984944;28;20034;-84
2021/06/19 06:08:32;;;;;;;16.05;14.45;;;22.00;99.90;;;;;;4976788;28;20149;-84
2021/06/19 06:10:58;;;;;;;14.90;13.48;;;21.90;99.90;;;;;;4977819;28;20085;-84
2021/06/19 06:13:24;;;;;;;16.70;14.45;;;21.90;99.90;;;;;;4959181;28;20049;-83
2021/06/19 06:15:50;;;;;;;35.47;15.55;;;21.70;99.90;;;;;;4966125;28;20038;-83
2021/06/19 06:18:16;;;;;;;15.82;14.25;;;21.70;99.90;;;;;;4981555;28;20871;-84
2021/06/19 06:33:22;;;;;;;17.08;14.90;;;21.70;99.90;;;;;;5122827;27;20209;-63
2021/06/19 06:35:48;;;;;;;19.95;16.20;;;22.80;99.90;;;;;;5105225;28;20040;-64
2021/06/19 06:38:14;;;;;;;17.25;15.05;;;23.00;99.90;;;;;;5102812;28;20423;-63
2021/06/19 06:40:40;;;;;;;17.48;15.68;;;23.10;99.30;;;;;;5105744;27;20067;-64
2021/06/19 06:43:05;;;;;;;19.40;15.57;;;23.30;98.90;;;;;;5103743;28;20612;-64
2021/06/19 06:45:31;;;;;;;17.25;15.38;;;23.40;99.20;;;;;;5102171;28;20040;-63
2021/06/19 06:47:57;;;;;;;18.65;16.10;;;23.60;98.70;;;;;;5108264;28;20039;-64
2021/06/19 06:50:26;;;;;;;16.77;15.07;;;23.80;98.40;;;;;;5106198;28;20031;-64
2021/06/19 06:52:52;;;;;;;17.70;15.60;;;23.90;98.20;;;;;;5099967;28;20044;-64
2021/06/19 06:55:17;;;;;;;19.23;16.45;;;23.90;98.20;;;;;;5108160;28;20374;-64
2021/06/19 06:57:45;;;;;;;19.05;15.52;;;23.90;98.00;;;;;;5104818;28;20074;-64
2021/06/19 07:00:12;;;;;;;19.60;15.48;;;23.70;97.10;;;;;;5101994;28;20043;-64
2021/06/19 07:02:42;;;;;;;17.83;15.63;;;23.60;97.10;;;;;;5109446;28;20393;-64
2021/06/19 07:05:11;;;;;;;20.55;16.92;;;23.40;97.70;;;;;;5103198;28;20043;-64
2021/06/19 07:07:38;;;;;;;22.38;16.17;;;23.40;98.10;;;;;;5103251;28;20051;-63
2021/06/19 07:10:06;;;;;;;21.63;16.98;;;23.30;98.00;;;;;;5099397;28;20054;-64
2021/06/19 07:12:32;;;;;;;20.73;16.98;;;23.20;97.30;;;;;;5102103;28;20051;-63
2021/06/19 07:14:57;;;;;;;24.35;17.58;;;23.10;97.20;;;;;;5101828;28;20035;-63
2021/06/19 07:17:23;;;;;;;21.50;17.15;;;23.00;97.70;;;;;;5099144;28;20047;-63
2021/06/19 07:19:49;;;;;;;20.88;17.52;;;22.90;97.90;;;;;;5104580;28;20047;-63
2021/06/19 07:22:15;;;;;;;22.02;17.23;;;22.90;97.20;;;;;;5103088;28;20119;-63
2021/06/19 07:24:42;;;;;;;25.05;17.80;;;22.70;97.30;;;;;;5105764;28;20036;-63
2021/06/19 07:27:08;;;;;;;22.80;17.23;;;22.50;97.90;;;;;;5101540;28;20413;-64
2021/06/19 07:29:34;;;;;;;24.67;18.08;;;22.40;98.10;;;;;;5094458;28;20116;-64
2021/06/19 07:31:59;;;;;;;25.15;18.83;;;22.30;97.80;;;;;;5098907;28;20515;-64
2021/06/19 07:34:27;;;;;;;20.50;17.15;;;22.20;97.70;;;;;;5088890;28;20046;-63
2021/06/19 07:36:53;;;;;;;23.70;18.67;;;22.00;98.70;;;;;;5086612;28;20044;-63
2021/06/19 07:39:19;;;;;;;26.02;19.52;;;21.90;99.10;;;;;;5087199;28;20051;-63
2021/06/19 07:41:44;;;;;;;22.83;18.38;;;21.90;99.30;;;;;;5083251;28;20136;-63
2021/06/19 07:44:11;;;;;;;21.23;18.25;;;21.90;99.50;;;;;;5087669;28;20046;-63
2021/06/19 07:46:37;;;;;;;26.58;18.85;;;21.80;99.40;;;;;;5089103;28;20782;-63
2021/06/19 07:49:03;;;;;;;24.73;18.70;;;21.80;99.50;;;;;;5087702;28;20176;-63
2021/06/19 07:51:29;;;;;;;21.58;18.60;;;21.70;99.50;;;;;;5085971;28;20071;-63
2021/06/19 07:53:57;;;;;;;25.15;18.83;;;21.70;99.90;;;;;;5099388;27;20114;-63
2021/06/19 07:56:22;;;;;;;25.73;18.67;;;21.80;99.90;;;;;;5087223;28;20118;-63
2021/06/19 07:58:48;;;;;;;24.52;18.85;;;21.90;99.90;;;;;;5082818;28;20048;-63
2021/06/19 08:01:14;;;;;;;23.67;18.15;;;22.00;99.90;;;;;;5086697;28;20425;-63
2021/06/19 08:03:40;;;;;;;26.55;18.77;;;22.10;99.50;;;;;;5083976;28;20044;-63
2021/06/19 08:06:05;;;;;;;24.10;19.63;;;22.10;99.40;;;;;;5100506;27;20042;-63
2021/06/19 08:08:31;;;;;;;27.05;20.02;;;22.00;99.40;;;;;;5083483;28;20721;-64
2021/06/19 08:10:57;;;;;;;24.98;20.33;;;22.00;99.60;;;;;;5082198;28;20059;-63
2021/06/19 08:13:22;;;;;;;26.23;19.92;;;21.90;99.50;;;;;;5085990;28;20032;-63
2021/06/19 08:15:48;;;;;;;28.98;21.55;;;21.80;99.70;;;;;;5085968;28;20529;-63
2021/06/19 08:18:14;;;;;;;27.38;21.75;;;21.70;99.70;;;;;;5086319;28;20040;-64
2021/06/19 08:20:40;;;;;;;26.45;20.95;;;21.70;99.70;;;;;;5081841;28;20506;-63
2021/06/19 08:23:06;;;;;;;24.30;19.65;;;21.70;99.80;;;;;;5085886;28;20534;-63
2021/06/19 08:25:31;;;;;;;23.90;18.45;;;21.80;99.60;;;;;;5085734;28;20043;-63
2021/06/19 08:27:57;;;;;;;24.23;18.63;;;21.90;99.40;;;;;;5084171;28;20040;-63
2021/06/19 08:30:23;;;;;;;24.27;19.23;;;22.00;99.20;;;;;;5084438;28;20047;-63
2021/06/19 08:32:49;;;;;;;24.48;19.10;;;22.00;99.10;;;;;;5085897;28;20040;-63
2021/06/19 08:35:15;;;;;;;26.02;19.85;;;22.20;98.60;;;;;;5088977;28;20051;-63
2021/06/19 08:37:42;;;;;;;21.33;17.27;;;22.40;99.30;;;;;;5087390;28;20167;-63
2021/06/19 08:40:08;;;;;;;20.25;18.13;;;22.70;98.40;;;;;;5089328;28;20031;-63
2021/06/19 08:42:35;;;;;;;21.55;18.27;;;22.90;97.80;;;;;;5091354;28;20040;-63
2021/06/19 08:45:01;;;;;;;18.80;16.90;;;23.20;97.40;;;;;;5087325;28;20126;-63
2021/06/19 08:47:34;;;;;;;20.63;16.73;;;23.50;97.30;;;;;;5091047;28;20040;-63
2021/06/19 08:50:03;;;;;;;19.50;17.50;;;23.80;96.40;;;;;;5084207;28;20040;-63
2021/06/19 08:52:29;;;;;;;17.85;16.08;;;24.00;95.70;;;;;;5080221;28;20119;-63
2021/06/19 08:54:54;;;;;;;17.83;16.13;;;24.20;95.20;;;;;;5085608;28;20107;-63
2021/06/19 08:57:20;;;;;;;17.75;15.23;;;24.20;95.70;;;;;;5085634;28;20035;-63
2021/06/19 08:59:50;;;;;;;17.02;12.57;;;24.30;95.00;;;;;;5087258;28;20040;-63
2021/06/19 09:02:19;;;;;;;12.88;11.55;;;24.20;94.50;;;;;;5085603;28;20469;-63
2021/06/19 09:05:17;;;;;;;12.55;11.15;;;24.20;94.60;;;;;;5088617;28;20394;-63
2021/06/19 09:07:45;;;;;;;12.80;11.32;;;24.20;94.80;;;;;;5076350;28;20044;-63
2021/06/19 09:10:22;;;;;;;14.82;13.07;;;24.20;94.10;;;;;;5087091;28;20084;-63
2021/06/19 09:13:09;;;;;;;14.35;12.85;;;24.10;94.70;;;;;;5085266;28;20143;-63
2021/06/19 09:15:45;;;;;;;14.45;12.80;;;24.00;95.20;;;;;;5082525;28;20032;-63
2021/06/19 09:18:25;;;;;;;18.17;15.05;;;23.90;95.60;;;;;;5089994;28;20040;-63
2021/06/19 09:20:54;;;;;;;14.98;13.48;;;23.80;94.70;;;;;;5082534;28;20036;-63
2021/06/19 09:23:37;;;;;;;17.77;15.93;;;23.80;95.30;;;;;;5087254;28;20046;-63
2021/06/19 09:26:06;;;;;;;18.83;16.83;;;23.80;95.50;;;;;;5081295;28;20039;-63
2021/06/19 09:28:32;;;;;;;18.55;16.08;;;23.80;95.60;;;;;;5084888;28;20043;-63
2021/06/19 09:30:57;;;;;;;23.33;16.95;;;23.80;95.20;;;;;;5083253;28;20040;-63
2021/06/19 09:33:23;;;;;;;19.05;17.15;;;23.70;95.30;;;;;;5084516;28;20067;-63
2021/06/19 09:35:49;;;;;;;21.15;16.40;;;23.70;95.20;;;;;;5072919;28;20063;-63
2021/06/19 09:38:16;;;;;;;18.02;16.15;;;23.50;95.70;;;;;;5068337;28;21506;-63
2021/06/19 09:40:47;;;;;;;18.52;16.52;;;23.40;95.90;;;;;;5070284;28;20040;-63
2021/06/19 09:43:21;;;;;;;19.75;16.98;;;23.40;96.20;;;;;;5084105;28;20566;-63
2021/06/19 09:46:04;;;;;;;20.15;18.05;;;23.20;96.30;;;;;;5084754;28;20093;-63
2021/06/19 09:48:32;;;;;;;21.40;19.00;;;23.10;97.10;;;;;;5079649;28;20092;-63
2021/06/19 09:51:15;;;;;;;22.10;19.10;;;23.00;97.20;;;;;;5089312;28;20047;-63
2021/06/19 09:53:45;;;;;;;22.13;19.77;;;22.90;97.40;;;;;;5084797;28;20032;-63
2021/06/19 09:56:13;;;;;;;24.80;17.65;;;22.90;97.50;;;;;;5088649;28;20040;-63
2021/06/19 09:58:41;;;;;;;25.58;20.25;;;22.90;98.00;;;;;;5084816;28;20071;-63
2021/06/19 10:01:07;;;;;;;25.65;19.67;;;22.80;97.60;;;;;;5083083;28;20075;-63
2021/06/19 10:04:05;;;;;;;25.90;21.05;;;22.80;97.40;;;;;;5085714;28;20478;-63
2021/06/19 10:06:32;;;;;;;22.80;19.08;;;22.80;97.10;;;;;;5051092;28;20048;-63
2021/06/19 10:08:58;;;;;;;21.73;19.33;;;22.80;96.90;;;;;;5087658;28;20040;-63
2021/06/19 10:11:26;;;;;;;20.80;18.60;;;22.70;97.70;;;;;;5086542;28;20126;-63
2021/06/19 10:13:54;;;;;;;20.33;18.30;;;22.90;97.80;;;;;;5090163;28;20110;-63
2021/06/19 10:16:20;;;;;;;19.73;17.70;;;23.00;96.90;;;;;;5084501;28;20040;-63
2021/06/19 10:18:46;;;;;;;20.70;17.90;;;23.00;97.10;;;;;;5086598;28;20657;-63
2021/06/19 10:21:14;;;;;;;19.73;16.27;;;22.90;97.50;;;;;;5087686;28;20076;-63
2021/06/19 10:23:41;;;;;;;19.95;18.00;;;22.80;97.60;;;;;;5087690;28;20036;-63
2021/06/19 10:26:07;;;;;;;17.90;16.05;;;22.80;97.10;;;;;;5085895;28;20066;-63
2021/06/19 10:28:37;;;;;;;16.60;14.90;;;22.80;96.90;;;;;;5087218;28;20059;-63
2021/06/19 10:31:03;;;;;;;18.73;16.80;;;22.80;96.70;;;;;;5087771;28;20042;-63
2021/06/19 10:33:34;;;;;;;17.25;15.65;;;22.90;96.10;;;;;;5090050;28;20040;-63
2021/06/19 10:36:02;;;;;;;18.35;16.40;;;23.10;96.40;;;;;;5083569;28;20093;-63
2021/06/19 10:38:48;;;;;;;17.58;15.73;;;23.30;96.40;;;;;;5086365;28;20048;-63
2021/06/19 10:41:14;;;;;;;16.87;15.13;;;23.40;96.10;;;;;;5098454;28;20914;-65
2021/06/19 10:43:45;;;;;;;18.67;14.52;;;23.40;96.10;;;;;;5084128;28;20050;-66
2021/06/19 10:46:35;;;;;;;15.05;13.55;;;23.40;95.80;;;;;;5085887;28;20040;-66
2021/06/19 10:49:03;;;;;;;14.43;12.98;;;23.40;96.10;;;;;;5085258;28;20483;-65
2021/06/19 10:51:32;;;;;;;13.93;12.73;;;23.60;96.00;;;;;;5083075;28;20044;-66
2021/06/19 10:54:15;;;;;;;16.05;14.40;;;23.70;95.00;;;;;;5083239;28;20046;-66
2021/06/19 10:56:59;;;;;;;13.55;12.27;;;23.70;95.40;;;;;;5084286;28;20036;-66
2021/06/19 10:59:30;;;;;;;13.98;12.77;;;23.60;95.20;;;;;;5088898;28;20044;-66
2021/06/19 11:01:58;;;;;;;15.43;14.13;;;23.50;95.30;;;;;;5086055;28;20039;-66
2021/06/19 11:04:39;;;;;;;15.30;13.77;;;23.40;95.90;;;;;;5120523;27;20514;-66
2021/06/19 11:07:28;;;;;;;16.17;14.93;;;23.50;95.90;;;;;;5086493;28;20122;-66
2021/06/19 11:09:54;;;;;;;16.67;15.25;;;23.50;95.90;;;;;;5085819;28;20032;-66
2021/06/19 11:12:28;;;;;;;15.68;14.15;;;23.60;95.70;;;;;;5090806;28;20081;-66
2021/06/19 11:14:59;;;;;;;15.20;13.90;;;23.70;95.90;;;;;;5092010;28;20032;-66
2021/06/19 11:17:31;;;;;;;15.57;14.15;;;23.80;95.20;;;;;;5092893;28;20113;-66
2021/06/19 11:20:09;;;;;;;16.13;14.60;;;23.80;94.40;;;;;;5088563;28;20770;-66
2021/06/19 11:22:37;;;;;;;17.30;15.65;;;23.80;95.40;;;;;;5087316;28;20561;-66
2021/06/19 11:25:14;;;;;;;14.15;12.95;;;23.70;95.10;;;;;;5089692;28;20051;-66
2021/06/19 11:27:52;;;;;;;12.65;11.65;;;23.70;95.30;;;;;;5080997;28;20030;-68
2021/06/19 11:30:38;;;;;;;12.48;11.13;;;23.60;95.90;;;;;;5083930;28;20035;-66
2021/06/19 11:33:23;;;;;;;11.55;10.52;;;23.60;96.10;;;;;;5083263;28;20032;-65
2021/06/19 11:36:14;;;;;;;12.90;11.70;;;23.60;96.40;;;;;;5101016;27;20040;-65
2021/06/19 11:38:56;;;;;;;12.27;11.07;;;23.60;96.40;;;;;;5084866;28;20485;-66
2021/06/19 11:41:34;;;;;;;12.20;11.05;;;23.70;96.50;;;;;;5084752;28;20123;-66
2021/06/19 11:44:08;;;;;;;10.93;9.82;;;24.00;96.80;;;;;;5085951;28;20054;-66
2021/06/19 11:46:46;;;;;;;12.13;10.98;;;24.10;96.00;;;;;;5083027;28;20028;-66
2021/06/19 11:49:12;;;;;;;11.65;10.45;;;24.20;95.70;;;;;;5086647;28;20048;-66
2021/06/19 11:51:39;;;;;;;11.00;10.00;;;24.20;94.80;;;;;;5086608;28;21464;-66
2021/06/19 11:54:06;;;;;;;10.30;9.23;;;24.10;95.20;;;;;;5086454;28;20827;-66
2021/06/19 11:56:32;;;;;;;11.18;10.05;;;24.20;95.30;;;;;;5085516;28;20040;-66
2021/06/19 11:59:00;;;;;;;11.80;10.52;;;24.40;95.80;;;;;;5083348;28;20032;-66
2021/06/19 12:01:42;;;;;;;10.40;9.25;;;24.60;94.70;;;;;;5083250;28;20084;-66
2021/06/19 12:04:15;;;;;;;12.93;10.55;;;24.80;94.70;;;;;;5085927;28;20919;-66
2021/06/19 12:06:51;;;;;;;12.82;11.82;;;24.90;94.40;;;;;;5083378;28;20070;-66
2021/06/19 12:09:28;;;;;;;12.45;11.30;;;24.90;94.10;;;;;;5082195;28;20047;-66
2021/06/19 12:11:59;;;;;;;12.48;11.20;;;25.10;93.80;;;;;;5083683;28;20093;-65
2021/06/19 12:14:33;;;;;;;10.00;9.20;;;25.10;92.90;;;;;;5087288;28;20048;-66
2021/06/19 12:17:05;;;;;;;13.95;8.77;;;25.00;92.70;;;;;;5086861;28;21006;-66
2021/06/19 12:19:33;;;;;;;9.57;8.80;;;25.20;93.40;;;;;;5087538;28;20101;-66
2021/06/19 12:22:03;;;;;;;12.30;9.75;;;25.30;93.00;;;;;;5083894;28;20161;-66
2021/06/19 12:24:30;;;;;;;9.63;8.77;;;25.40;93.00;;;;;;5085678;28;20059;-66
2021/06/19 12:27:03;;;;;;;21.42;10.85;;;25.70;93.00;;;;;;5087745;28;20049;-65
2021/06/19 12:29:35;;;;;;;11.35;9.98;;;25.80;92.60;;;;;;5083150;28;20048;-66
2021/06/19 12:32:02;;;;;;;11.45;10.45;;;25.70;92.50;;;;;;5083280;28;20056;-66
2021/06/19 12:34:29;;;;;;;11.65;8.90;;;25.60;92.40;;;;;;5087426;28;20115;-64
2021/06/19 12:36:56;;;;;;;10.20;9.38;;;25.60;92.70;;;;;;5085897;28;20071;-65
2021/06/19 12:39:23;;;;;;;10.52;9.55;;;25.50;92.20;;;;;;5086331;28;20111;-65
2021/06/19 12:41:49;;;;;;;12.68;10.75;;;25.30;92.70;;;;;;5087468;28;20119;-67
2021/06/19 12:44:15;;;;;;;10.98;9.98;;;25.20;92.00;;;;;;5086877;28;20111;-65
2021/06/19 12:46:40;;;;;;;10.70;9.77;;;25.20;92.50;;;;;;5086398;28;20069;-65
2021/06/19 12:49:07;;;;;;;10.20;9.40;;;25.10;92.10;;;;;;5083647;28;20070;-65
2021/06/19 12:51:37;;;;;;;13.32;8.85;;;25.10;92.30;;;;;;5086755;28;20043;-65
2021/06/19 12:54:22;;;;;;;10.70;9.90;;;25.10;92.70;;;;;;5086999;28;20047;-65